createdAt,value
2022-08-19T00:02:01.305Z,18.80
2022-08-19T00:04:33.574Z,19.40
2022-08-19T00:07:01.015Z,20.08
2022-08-19T00:09:28.936Z,18.10
2022-08-19T00:11:57.437Z,18.63
2022-08-19T00:14:25.631Z,20.20
2022-08-19T00:16:55.371Z,17.15
2022-08-19T00:19:22.808Z,17.23
2022-08-19T00:21:49.364Z,21.17
2022-08-19T00:24:16.521Z,19.95
2022-08-19T00:26:45.395Z,20.27
2022-08-19T00:29:14.557Z,22.20
2022-08-19T00:31:42.790Z,20.55
2022-08-19T00:34:09.720Z,18.25
2022-08-19T00:36:36.242Z,19.50
2022-08-19T00:39:03.356Z,19.75
2022-08-19T00:41:30.074Z,20.02
2022-08-19T00:44:07.435Z,22.75
2022-08-19T00:46:37.468Z,20.17
2022-08-19T00:49:10.797Z,22.27
2022-08-19T00:51:37.592Z,20.83
2022-08-19T00:54:04.652Z,18.65
2022-08-19T00:56:32.307Z,18.95
2022-08-19T00:59:02.725Z,19.45
2022-08-19T01:01:29.751Z,19.30
2022-08-19T01:03:57.972Z,18.40
2022-08-19T01:06:26.674Z,19.35
2022-08-19T01:08:53.491Z,16.80
2022-08-19T01:11:20.059Z,18.63
2022-08-19T01:13:50.084Z,18.35
2022-08-19T01:16:18.667Z,21.48
2022-08-19T01:18:45.909Z,19.35
2022-08-19T01:21:43.542Z,16.15
2022-08-19T01:24:10.118Z,16.65
2022-08-19T01:26:45.767Z,15.32
2022-08-19T01:29:15.341Z,19.25
2022-08-19T01:31:42.120Z,15.93
2022-08-19T01:34:08.781Z,15.95
2022-08-19T01:36:46.508Z,17.55
2022-08-19T01:39:17.285Z,14.95
2022-08-19T01:41:44.000Z,16.45
2022-08-19T01:44:18.708Z,18.70
2022-08-19T01:46:48.605Z,17.13
2022-08-19T01:49:17.376Z,17.37
2022-08-19T01:51:43.947Z,16.55
2022-08-19T01:54:13.100Z,17.38
2022-08-19T01:56:39.963Z,16.38
2022-08-19T01:59:13.189Z,16.15
2022-08-19T02:01:39.814Z,15.35
2022-08-19T02:04:06.765Z,19.95
2022-08-19T02:06:34.124Z,16.25
2022-08-19T02:09:00.735Z,16.25
2022-08-19T02:11:34.516Z,13.65
2022-08-19T02:14:04.434Z,13.93
2022-08-19T02:16:31.686Z,17.25
2022-08-19T02:19:01.530Z,14.10
2022-08-19T02:21:29.272Z,15.85
2022-08-19T02:23:56.380Z,15.25
2022-08-19T02:26:22.989Z,15.93
2022-08-19T02:28:49.536Z,17.55
2022-08-19T02:31:20.051Z,13.20
2022-08-19T02:33:47.005Z,15.73
2022-08-19T02:36:15.553Z,16.65
2022-08-19T02:38:43.283Z,16.23
2022-08-19T02:41:19.325Z,13.32
2022-08-19T02:44:18.345Z,15.85
2022-08-19T02:46:34.393Z,13.07
2022-08-19T02:49:06.113Z,13.93
2022-08-19T02:51:36.512Z,13.75
2022-08-19T02:54:05.024Z,14.50
2022-08-19T02:56:32.211Z,14.32
2022-08-19T02:58:59.314Z,14.35
2022-08-19T03:01:30.272Z,15.38
2022-08-19T03:03:57.940Z,14.50
2022-08-19T03:06:24.665Z,13.80
2022-08-19T03:08:51.719Z,17.70
2022-08-19T03:11:27.857Z,14.82
2022-08-19T03:13:55.306Z,17.35
2022-08-19T03:16:28.493Z,15.05
2022-08-19T03:18:56.996Z,18.80
2022-08-19T03:21:25.847Z,13.75
2022-08-19T03:23:56.477Z,15.02
2022-08-19T03:26:23.102Z,16.02
2022-08-19T03:28:51.671Z,14.68
2022-08-19T03:31:44.351Z,15.80
2022-08-19T03:34:18.715Z,17.95
2022-08-19T03:36:46.735Z,15.15
2022-08-19T03:39:13.561Z,17.17
2022-08-19T03:41:45.319Z,13.95
2022-08-19T03:44:19.427Z,16.80
2022-08-19T03:46:56.247Z,15.10
2022-08-19T03:49:27.132Z,15.20
2022-08-19T03:51:57.663Z,14.43
2022-08-19T03:54:25.445Z,13.90
2022-08-19T03:56:54.640Z,15.13
2022-08-19T03:59:26.060Z,13.90
2022-08-19T04:01:54.468Z,16.40
2022-08-19T04:04:21.028Z,16.50
2022-08-19T04:06:48.199Z,15.40
2022-08-19T04:09:14.883Z,15.23
2022-08-19T04:11:47.851Z,16.95
2022-08-19T04:14:18.838Z,13.48
2022-08-19T04:16:46.158Z,13.23
2022-08-19T04:19:14.034Z,17.90
2022-08-19T04:21:41.419Z,14.07
2022-08-19T04:24:08.196Z,17.58
2022-08-19T04:26:37.644Z,15.40
2022-08-19T04:29:27.875Z,14.60
2022-08-19T04:31:56.575Z,15.73
2022-08-19T04:34:25.778Z,13.77
2022-08-19T04:36:54.362Z,14.05
2022-08-19T04:39:44.672Z,14.18
2022-08-19T04:44:59.649Z,13.75
2022-08-19T04:47:47.819Z,13.48
2022-08-19T04:50:13.252Z,13.63
2022-08-19T04:52:43.811Z,13.82
2022-08-19T04:55:15.203Z,16.92
2022-08-19T04:57:42.152Z,12.63
2022-08-19T05:00:12.108Z,13.70
2022-08-19T05:02:39.655Z,13.82
2022-08-19T05:05:07.601Z,14.20
2022-08-19T05:07:34.879Z,15.95
2022-08-19T05:10:01.588Z,14.52
2022-08-19T05:12:29.780Z,12.27
2022-08-19T05:14:58.009Z,12.68
2022-08-19T05:17:27.907Z,11.80
2022-08-19T05:20:14.874Z,12.10
2022-08-19T05:22:42.836Z,12.75
2022-08-19T05:25:13.817Z,13.55
2022-08-19T05:27:42.310Z,15.35
2022-08-19T05:30:10.291Z,11.73
2022-08-19T05:32:37.203Z,11.35
2022-08-19T05:35:05.452Z,11.05
2022-08-19T05:37:31.991Z,10.90
2022-08-19T05:39:58.624Z,11.43
2022-08-19T05:42:25.255Z,10.30
2022-08-19T05:44:52.064Z,10.68
2022-08-19T05:47:20.627Z,10.30
2022-08-19T05:49:48.154Z,13.40
2022-08-19T05:52:18.722Z,15.85
2022-08-19T05:54:51.321Z,9.93
2022-08-19T05:57:19.173Z,12.45
2022-08-19T05:59:48.684Z,9.75
2022-08-19T06:02:15.685Z,9.77
2022-08-19T06:04:43.886Z,9.35
2022-08-19T06:07:12.189Z,8.75
2022-08-19T06:09:40.405Z,8.50
2022-08-19T06:12:07.522Z,10.00
2022-08-19T06:14:40.203Z,8.80
2022-08-19T06:17:07.648Z,8.90
2022-08-19T06:19:34.775Z,8.45
2022-08-19T06:22:07.754Z,7.88
2022-08-19T06:24:34.616Z,7.47
2022-08-19T06:27:01.983Z,7.95
2022-08-19T06:29:31.188Z,9.55
2022-08-19T06:32:00.519Z,6.40
2022-08-19T06:34:29.634Z,9.02
2022-08-19T06:36:57.338Z,9.27
2022-08-19T06:39:26.693Z,8.57
2022-08-19T06:41:58.693Z,9.40
2022-08-19T06:44:27.978Z,7.90
2022-08-19T06:46:56.106Z,8.50
2022-08-19T06:49:24.289Z,11.18
2022-08-19T06:51:51.944Z,8.20
2022-08-19T06:54:20.246Z,6.45
2022-08-19T06:56:48.098Z,6.43
2022-08-19T06:59:18.813Z,8.18
2022-08-19T07:01:47.974Z,9.77
2022-08-19T07:04:20.950Z,9.25
2022-08-19T07:06:54.907Z,10.57
2022-08-19T07:09:21.823Z,10.05
2022-08-19T07:11:51.648Z,11.55
2022-08-19T07:14:24.847Z,11.20
2022-08-19T07:16:53.105Z,8.90
2022-08-19T07:19:20.597Z,9.85
2022-08-19T07:21:50.603Z,11.77
2022-08-19T07:24:18.184Z,8.57
2022-08-19T07:26:45.661Z,11.80
2022-08-19T07:29:13.709Z,13.63
2022-08-19T07:31:40.745Z,11.80
2022-08-19T07:34:14.334Z,11.77
2022-08-19T07:36:43.171Z,14.32
2022-08-19T07:39:19.735Z,9.57
2022-08-19T07:41:47.272Z,9.52
2022-08-19T07:44:15.146Z,9.77
2022-08-19T07:46:46.518Z,7.25
2022-08-19T07:49:19.997Z,5.95
2022-08-19T07:52:02.239Z,7.53
2022-08-19T07:54:31.435Z,6.15
2022-08-19T07:56:58.279Z,6.47
2022-08-19T07:59:25.091Z,5.95
2022-08-19T08:01:52.452Z,7.15
2022-08-19T08:04:38.682Z,6.18
2022-08-19T08:07:25.581Z,6.28
2022-08-19T08:09:58.622Z,7.82
2022-08-19T08:12:35.170Z,8.05
2022-08-19T08:15:08.940Z,7.15
2022-08-19T08:17:49.310Z,8.45
2022-08-19T08:20:19.131Z,5.40
2022-08-19T08:23:06.143Z,6.78
2022-08-19T08:25:34.391Z,8.30
2022-08-19T08:28:02.430Z,7.10
2022-08-19T08:30:32.808Z,7.05
2022-08-19T08:32:59.776Z,6.50
2022-08-19T08:35:26.348Z,6.18
2022-08-19T08:37:55.569Z,6.43
2022-08-19T08:40:33.072Z,7.15
2022-08-19T08:43:32.411Z,6.65
2022-08-19T08:46:12.363Z,6.93
2022-08-19T08:48:54.451Z,9.82
2022-08-19T08:51:49.068Z,8.50
2022-08-19T08:54:33.230Z,6.65
2022-08-19T08:57:03.367Z,8.45
2022-08-19T08:59:35.236Z,7.38
2022-08-19T09:02:01.910Z,9.77
2022-08-19T09:04:29.188Z,7.55
2022-08-19T09:07:22.878Z,7.20
2022-08-19T09:10:27.751Z,6.45
2022-08-19T09:13:24.748Z,6.25
2022-08-19T09:16:13.969Z,5.78
2022-08-19T09:18:40.475Z,6.97
2022-08-19T09:21:08.709Z,6.07
2022-08-19T09:23:36.651Z,6.45
2022-08-19T09:26:14.440Z,8.57
2022-08-19T09:28:44.954Z,6.47
2022-08-19T09:31:18.693Z,6.72
2022-08-19T09:33:45.875Z,6.40
2022-08-19T09:36:21.647Z,6.13
2022-08-19T09:38:54.017Z,7.75
2022-08-19T09:41:23.074Z,8.00
2022-08-19T09:43:53.113Z,8.13
2022-08-19T09:46:23.992Z,7.68
2022-08-19T09:48:52.313Z,9.25
2022-08-19T09:51:25.617Z,8.68
2022-08-19T09:53:54.928Z,6.65
2022-08-19T09:58:52.050Z,7.60
2022-08-19T10:01:22.355Z,7.28
2022-08-19T10:03:52.119Z,6.25
2022-08-19T10:06:19.581Z,7.10
2022-08-19T10:09:08.985Z,7.15
2022-08-19T10:11:40.088Z,7.53
2022-08-19T10:14:08.116Z,8.52
2022-08-19T10:16:39.475Z,8.25
2022-08-19T10:19:06.237Z,7.78
2022-08-19T10:21:35.207Z,7.50
2022-08-19T10:24:04.975Z,9.55
2022-08-19T10:26:38.281Z,7.10
2022-08-19T10:29:06.443Z,6.82
2022-08-19T10:32:01.337Z,7.65
2022-08-19T10:34:27.849Z,8.50
2022-08-19T10:37:00.938Z,8.00
2022-08-19T10:39:32.865Z,10.02
2022-08-19T10:42:08.270Z,8.95
2022-08-19T10:44:36.439Z,9.35
2022-08-19T10:47:04.735Z,12.38
2022-08-19T10:50:02.952Z,9.20
2022-08-19T10:52:35.160Z,9.95
2022-08-19T10:55:26.355Z,9.32
2022-08-19T10:58:03.641Z,9.98
2022-08-19T11:00:32.435Z,9.50
2022-08-19T11:02:59.011Z,9.45
2022-08-19T11:05:25.594Z,13.07
2022-08-19T11:07:52.759Z,10.95
2022-08-19T11:10:21.862Z,10.35
2022-08-19T11:12:49.152Z,12.48
2022-08-19T11:15:16.324Z,11.40
2022-08-19T11:17:44.789Z,11.10
2022-08-19T11:20:15.923Z,10.75
2022-08-19T11:22:43.230Z,11.10
2022-08-19T11:25:11.882Z,13.68
2022-08-19T11:27:44.401Z,12.27
2022-08-19T11:30:14.063Z,11.55
2022-08-19T11:32:48.781Z,12.00
2022-08-19T11:35:17.114Z,11.90
2022-08-19T11:37:43.734Z,12.52
2022-08-19T11:40:10.923Z,10.75
2022-08-19T11:42:56.607Z,10.07
2022-08-19T11:45:28.162Z,10.45
2022-08-19T11:47:55.590Z,9.48
2022-08-19T11:50:26.438Z,10.70
2022-08-19T11:52:57.908Z,10.80
2022-08-19T11:55:24.990Z,11.88
2022-08-19T11:57:51.694Z,10.65
2022-08-19T12:00:18.430Z,10.13
2022-08-19T12:02:44.971Z,9.70
2022-08-19T12:05:12.865Z,10.63
2022-08-19T12:07:41.783Z,9.45
2022-08-19T12:10:08.966Z,8.57
2022-08-19T12:12:35.614Z,9.30
2022-08-19T12:15:02.812Z,9.95
2022-08-19T12:17:29.651Z,8.98
2022-08-19T12:19:56.291Z,8.98
2022-08-19T12:22:23.061Z,7.78
2022-08-19T12:24:51.773Z,8.50
2022-08-19T12:27:31.086Z,9.05
2022-08-19T12:30:08.744Z,8.88
2022-08-19T12:32:35.767Z,8.90
2022-08-19T12:35:02.340Z,11.60
2022-08-19T12:37:28.876Z,9.45
2022-08-19T12:39:55.503Z,8.55
2022-08-19T12:42:22.999Z,9.23
2022-08-19T12:44:49.555Z,10.52
2022-08-19T12:47:16.145Z,9.38
2022-08-19T12:49:53.867Z,8.55
2022-08-19T12:52:23.803Z,9.32
2022-08-19T12:54:53.803Z,8.63
2022-08-19T12:57:21.643Z,8.75
2022-08-19T12:59:54.613Z,9.57
2022-08-19T13:02:22.335Z,9.18
2022-08-19T13:04:48.857Z,9.20
2022-08-19T13:07:15.576Z,9.45
2022-08-19T13:09:43.561Z,6.97
2022-08-19T13:12:13.833Z,6.50
2022-08-19T13:14:42.009Z,7.78
2022-08-19T13:17:09.574Z,6.03
2022-08-19T13:19:38.004Z,7.35
2022-08-19T13:22:04.591Z,8.45
2022-08-19T13:24:42.860Z,6.55
2022-08-19T13:27:11.782Z,6.95
2022-08-19T13:30:00.080Z,6.30
2022-08-19T13:32:44.978Z,6.22
2022-08-19T13:35:14.912Z,5.97
2022-08-19T13:37:45.598Z,5.53
2022-08-19T13:40:18.010Z,6.20
2022-08-19T13:42:47.381Z,5.72
2022-08-19T13:45:16.157Z,5.40
2022-08-19T13:47:45.865Z,5.40
2022-08-19T13:50:14.752Z,5.40
2022-08-19T13:52:41.537Z,5.45
2022-08-19T13:55:09.329Z,4.93
2022-08-19T13:57:36.246Z,5.90
2022-08-19T14:00:05.741Z,5.40
2022-08-19T14:02:32.377Z,5.40
2022-08-19T14:04:59.871Z,5.50
2022-08-19T14:07:26.462Z,5.75
2022-08-19T14:09:53.019Z,4.85
2022-08-19T14:12:28.421Z,4.50
2022-08-19T14:14:55.492Z,5.05
2022-08-19T14:17:22.548Z,6.13
2022-08-19T14:19:49.094Z,5.35
2022-08-19T14:22:15.680Z,4.70
2022-08-19T14:24:49.266Z,4.78
2022-08-19T14:27:15.834Z,4.45
2022-08-19T14:29:42.796Z,5.43
2022-08-19T14:32:14.449Z,4.43
2022-08-19T14:34:43.534Z,4.90
2022-08-19T14:37:10.499Z,4.22
2022-08-19T14:39:43.644Z,4.20
2022-08-19T14:42:11.568Z,4.93
2022-08-19T14:44:38.672Z,4.20
2022-08-19T14:47:05.432Z,4.72
2022-08-19T14:49:35.003Z,7.00
2022-08-19T14:52:08.962Z,4.40
2022-08-19T14:54:35.541Z,4.10
2022-08-19T14:57:02.189Z,3.95
2022-08-19T14:59:28.917Z,4.63
2022-08-19T15:01:55.521Z,6.03
2022-08-19T15:04:22.121Z,5.30
2022-08-19T15:06:48.717Z,5.47
2022-08-19T15:09:15.315Z,4.22
2022-08-19T15:11:43.637Z,4.03
2022-08-19T15:14:11.123Z,3.95
2022-08-19T15:16:38.983Z,5.60
2022-08-19T15:19:05.528Z,3.88
2022-08-19T15:21:32.116Z,4.45
2022-08-19T15:23:59.852Z,4.28
2022-08-19T15:26:28.695Z,3.88
2022-08-19T15:28:55.421Z,5.57
2022-08-19T15:31:28.504Z,3.95
2022-08-19T15:33:59.249Z,4.30
2022-08-19T15:36:27.170Z,4.55
2022-08-19T15:38:54.138Z,3.63
2022-08-19T15:41:27.405Z,4.60
2022-08-19T15:43:59.681Z,3.60
2022-08-19T15:46:29.370Z,3.53
2022-08-19T15:48:59.898Z,4.70
2022-08-19T15:51:28.874Z,3.97
2022-08-19T15:53:55.585Z,4.05
2022-08-19T15:56:26.705Z,3.78
2022-08-19T15:59:12.536Z,4.00
2022-08-19T16:01:57.921Z,4.53
2022-08-19T16:04:43.603Z,3.92
2022-08-19T16:07:10.343Z,3.38
2022-08-19T16:09:36.955Z,3.13
2022-08-19T16:12:06.108Z,3.90
2022-08-19T16:14:35.335Z,4.07
2022-08-19T16:17:02.380Z,4.72
2022-08-19T16:19:28.974Z,5.93
2022-08-19T16:21:56.875Z,5.07
2022-08-19T16:24:26.854Z,6.93
2022-08-19T16:29:34.533Z,6.90
2022-08-19T16:32:07.896Z,6.57
2022-08-19T16:34:34.661Z,5.10
2022-08-19T16:37:01.410Z,4.60
2022-08-19T16:39:28.018Z,4.93
2022-08-19T16:41:54.665Z,4.63
2022-08-19T16:44:21.482Z,4.45
2022-08-19T16:46:55.725Z,4.90
2022-08-19T16:49:53.051Z,4.55
2022-08-19T16:52:17.545Z,5.00
2022-08-19T16:54:44.764Z,4.63
2022-08-19T16:57:12.351Z,4.38
2022-08-19T16:59:42.598Z,4.85
2022-08-19T17:02:17.629Z,4.63
2022-08-19T17:04:44.228Z,4.43
2022-08-19T17:07:22.553Z,4.40
2022-08-19T17:09:49.421Z,3.90
2022-08-19T17:12:17.438Z,5.88
2022-08-19T17:14:46.098Z,5.95
2022-08-19T17:17:12.909Z,4.47
2022-08-19T17:19:41.816Z,4.57
2022-08-19T17:22:11.373Z,4.78
2022-08-19T17:24:38.630Z,6.50
2022-08-19T17:27:07.819Z,5.47
2022-08-19T17:29:34.980Z,4.95
2022-08-19T17:32:02.019Z,4.90
2022-08-19T17:34:28.713Z,6.30
2022-08-19T17:36:57.155Z,4.95
2022-08-19T17:39:25.348Z,6.18
2022-08-19T17:41:52.069Z,6.43
2022-08-19T17:44:18.991Z,8.73
2022-08-19T17:46:46.664Z,6.80
2022-08-19T17:49:13.575Z,5.88
2022-08-19T17:51:44.008Z,7.55
2022-08-19T17:54:15.230Z,8.88
2022-08-19T17:56:42.340Z,6.65
2022-08-19T17:59:13.887Z,7.53
2022-08-19T18:01:53.441Z,9.50
2022-08-19T18:06:53.143Z,7.43
2022-08-19T18:09:41.694Z,7.63
2022-08-19T18:12:10.855Z,7.53
2022-08-19T18:14:39.365Z,7.55
2022-08-19T18:17:10.825Z,8.25
2022-08-19T18:19:41.094Z,9.40
2022-08-19T18:22:28.886Z,8.30
2022-08-19T18:24:57.683Z,7.70
2022-08-19T18:27:26.385Z,7.18
2022-08-19T18:29:54.658Z,7.05
2022-08-19T18:32:24.093Z,7.82
2022-08-19T18:34:51.844Z,7.13
2022-08-19T18:37:19.086Z,7.43
2022-08-19T18:40:04.441Z,6.93
2022-08-19T18:42:49.718Z,7.35
2022-08-19T18:45:34.714Z,7.65
2022-08-19T18:48:26.652Z,8.63
2022-08-19T18:50:54.791Z,6.88
2022-08-19T18:53:21.328Z,7.78
2022-08-19T18:55:52.013Z,8.27
2022-08-19T18:58:18.664Z,7.43
2022-08-19T19:00:45.501Z,8.10
2022-08-19T19:03:12.104Z,7.40
2022-08-19T19:05:39.993Z,7.88
2022-08-19T19:08:07.541Z,7.38
2022-08-19T19:10:36.226Z,7.50
2022-08-19T19:13:03.669Z,7.30
2022-08-19T19:15:30.355Z,7.93
2022-08-19T19:17:57.317Z,8.88
2022-08-19T19:20:36.688Z,7.05
2022-08-19T19:23:04.098Z,7.57
2022-08-19T19:25:50.373Z,7.70
2022-08-19T19:28:28.629Z,7.15
2022-08-19T19:30:59.805Z,8.88
2022-08-19T19:33:27.756Z,7.57
2022-08-19T19:35:54.473Z,7.10
2022-08-19T19:38:21.074Z,7.32
2022-08-19T19:40:47.665Z,10.30
2022-08-19T19:43:17.462Z,8.02
2022-08-19T19:45:44.352Z,9.38
2022-08-19T19:48:13.785Z,7.40
2022-08-19T19:50:41.216Z,7.60
2022-08-19T19:53:07.754Z,8.38
2022-08-19T19:55:34.765Z,8.23
2022-08-19T19:58:01.332Z,7.35
2022-08-19T20:00:28.097Z,10.85
2022-08-19T20:02:55.918Z,7.50
2022-08-19T20:05:24.324Z,7.00
2022-08-19T20:08:10.501Z,7.57
2022-08-19T20:10:38.153Z,7.13
2022-08-19T20:13:06.306Z,8.57
2022-08-19T20:15:33.068Z,7.63
2022-08-19T20:18:00.880Z,8.13
2022-08-19T20:20:28.056Z,8.35
2022-08-19T20:22:54.648Z,8.20
2022-08-19T20:25:22.106Z,8.20
2022-08-19T20:27:51.678Z,7.78
2022-08-19T20:30:23.257Z,9.80
2022-08-19T20:32:50.281Z,7.30
2022-08-19T20:35:20.582Z,8.77
2022-08-19T20:37:47.834Z,7.43
2022-08-19T20:40:15.232Z,9.30
2022-08-19T20:42:43.512Z,8.63
2022-08-19T20:45:33.292Z,7.18
2022-08-19T20:48:02.707Z,9.23
2022-08-19T20:50:30.599Z,8.50
2022-08-19T20:52:57.554Z,7.63
2022-08-19T20:55:24.608Z,9.95
2022-08-19T20:57:51.697Z,10.85
2022-08-19T21:00:18.941Z,7.43
2022-08-19T21:02:46.905Z,7.55
2022-08-19T21:05:13.900Z,9.02
2022-08-19T21:07:40.825Z,9.13
2022-08-19T21:10:08.004Z,7.95
2022-08-19T21:12:34.947Z,7.22
2022-08-19T21:15:01.653Z,8.32
2022-08-19T21:17:28.216Z,7.25
2022-08-19T21:19:54.852Z,7.53
2022-08-19T21:22:21.857Z,7.60
2022-08-19T21:24:48.580Z,6.65
2022-08-19T21:27:15.130Z,8.45
2022-08-19T21:29:42.273Z,6.55
2022-08-19T21:32:11.235Z,6.88
2022-08-19T21:34:40.953Z,6.93
2022-08-19T21:37:11.625Z,9.73
2022-08-19T21:39:44.133Z,6.95
2022-08-19T21:42:12.602Z,6.88
2022-08-19T21:44:40.137Z,8.32
2022-08-19T21:47:12.519Z,5.65
2022-08-19T21:49:39.163Z,7.82
2022-08-19T21:52:06.287Z,5.63
2022-08-19T21:54:37.841Z,8.43
2022-08-19T21:57:09.981Z,6.97
2022-08-19T21:59:41.269Z,6.32
2022-08-19T22:02:22.054Z,7.30
2022-08-19T22:04:51.869Z,9.88
2022-08-19T22:07:21.999Z,7.03
2022-08-19T22:09:50.239Z,7.32
2022-08-19T22:12:26.435Z,7.75
2022-08-19T22:14:54.861Z,7.50
2022-08-19T22:17:22.987Z,6.15
2022-08-19T22:19:50.930Z,9.25
2022-08-19T22:22:32.524Z,8.43
2022-08-19T22:25:30.088Z,7.78
2022-08-19T22:28:00.396Z,7.60
2022-08-19T22:30:27.789Z,5.95
2022-08-19T22:33:02.760Z,6.53
2022-08-19T22:35:32.412Z,6.82
2022-08-19T22:38:00.300Z,4.82
2022-08-19T22:40:29.704Z,5.30
2022-08-19T22:43:00.699Z,5.40
2022-08-19T22:45:28.110Z,6.40
2022-08-19T22:47:55.085Z,5.47
2022-08-19T22:50:21.901Z,4.22
2022-08-19T22:52:52.266Z,10.02
2022-08-19T22:55:19.263Z,5.55
2022-08-19T22:57:45.809Z,6.85
2022-08-19T23:00:13.588Z,4.88
2022-08-19T23:02:51.686Z,6.38
2022-08-19T23:05:21.982Z,5.35
2022-08-19T23:07:52.107Z,4.53
2022-08-19T23:10:26.650Z,4.63
2022-08-19T23:12:56.941Z,4.25
2022-08-19T23:15:26.122Z,4.00
2022-08-19T23:17:55.093Z,5.13
2022-08-19T23:20:23.615Z,3.60
2022-08-19T23:22:50.952Z,4.80
2022-08-19T23:25:22.579Z,4.22
2022-08-19T23:28:07.972Z,7.20
2022-08-19T23:30:39.114Z,4.13
2022-08-19T23:33:13.383Z,4.00
2022-08-19T23:35:41.641Z,5.07
2022-08-19T23:38:09.479Z,3.97
2022-08-19T23:40:37.236Z,4.60
2022-08-19T23:43:06.235Z,4.57
2022-08-19T23:45:38.314Z,6.53
2022-08-19T23:50:32.622Z,5.45
2022-08-19T23:53:00.557Z,3.72
2022-08-19T23:55:30.112Z,3.67
2022-08-19T23:57:57.645Z,4.78
